Time;durP1;ratioP1;P1;durP2;ratioP2;P2;SDS_P1;SDS_P2;PMS_P1;PMS_P2;Temp;Humidity;BMP_temperature;BMP_pressure;BME280_temperature;BME280_humidity;BME280_pressure;Samples;Min_cycle;Max_cycle;Signal;HPM_P1;HPM_P2
2023/04/14 00:01:39;;;;;;;;;4.00;2.00;;;;;;;;5075432;27;45465;-62
2023/04/14 00:04:05;;;;;;;;;3.00;3.00;;;;;;;;5076206;27;45511;-59
2023/04/14 00:06:31;;;;;;;;;3.00;3.00;;;;;;;;5077340;27;45481;-61
2023/04/14 00:08:57;;;;;;;;;4.00;4.00;;;;;;;;5077463;27;45637;-60
2023/04/14 00:11:22;;;;;;;;;2.00;2.00;;;;;;;;5076930;27;45564;-62
2023/04/14 00:13:47;;;;;;;;;2.33;2.00;;;;;;;;5076495;27;45552;-61
2023/04/14 00:16:12;;;;;;;;;2.67;2.00;;;;;;;;5076144;27;45382;-59
2023/04/14 00:18:37;;;;;;;;;3.00;3.00;;;;;;;;5063597;28;45435;-59
2023/04/14 00:21:03;;;;;;;;;4.67;3.00;;;;;;;;5077265;27;45514;-59
2023/04/14 00:23:28;;;;;;;;;3.33;2.67;;;;;;;;5077068;27;45434;-60
2023/04/14 00:25:53;;;;;;;;;2.67;2.67;;;;;;;;5076500;28;45455;-62
2023/04/14 00:28:18;;;;;;;;;3.00;3.00;;;;;;;;5077342;27;45531;-61
2023/04/14 00:30:43;;;;;;;;;5.00;5.00;;;;;;;;5073461;27;45622;-62
2023/04/14 00:33:09;;;;;;;;;2.33;2.33;;;;;;;;5076080;27;45406;-61
2023/04/14 00:35:35;;;;;;;;;2.00;2.00;;;;;;;;5075204;27;45492;-62
2023/04/14 00:38:00;;;;;;;;;3.00;2.00;;;;;;;;5077118;27;45676;-62
2023/04/14 00:40:25;;;;;;;;;4.33;4.33;;;;;;;;5076742;27;45849;-61
2023/04/14 00:42:51;;;;;;;;;4.67;3.67;;;;;;;;5075461;28;45433;-61
2023/04/14 00:45:16;;;;;;;;;4.00;4.00;;;;;;;;5076170;27;45488;-59
2023/04/14 00:47:45;;;;;;;;;4.00;4.00;;;;;;;;5068325;27;45499;-60
2023/04/14 00:50:15;;;;;;;;;5.67;4.67;;;;;;;;5075898;27;46089;-60
2023/04/14 00:52:41;;;;;;;;;2.00;2.00;;;;;;;;5075864;27;45528;-64
2023/04/14 00:55:07;;;;;;;;;3.00;3.00;;;;;;;;5073670;27;45508;-58
2023/04/14 00:57:32;;;;;;;;;3.00;3.00;;;;;;;;5075732;27;45578;-62
2023/04/14 00:59:58;;;;;;;;;3.33;3.33;;;;;;;;5075880;27;46308;-61
2023/04/14 01:02:24;;;;;;;;;2.00;2.00;;;;;;;;5075336;27;45416;-58
2023/04/14 01:04:49;;;;;;;;;3.33;3.33;;;;;;;;5069325;27;45473;-60
2023/04/14 01:07:15;;;;;;;;;5.00;5.00;;;;;;;;5073756;27;45551;-62
2023/04/14 01:09:40;;;;;;;;;4.00;4.00;;;;;;;;5073703;27;47464;-62
2023/04/14 01:12:11;;;;;;;;;3.67;3.67;;;;;;;;5075476;27;45508;-61
2023/04/14 01:14:40;;;;;;;;;2.33;2.33;;;;;;;;5074002;27;45672;-62
2023/04/14 01:17:10;;;;;;;;;3.00;3.00;;;;;;;;5075559;27;45577;-60
2023/04/14 01:19:53;;;;;;;;;3.00;3.00;;;;;;;;5075251;27;46176;-62
2023/04/14 01:22:21;;;;;;;;;2.00;2.00;;;;;;;;5074288;28;45565;-61
2023/04/14 01:25:08;;;;;;;;;4.00;2.33;;;;;;;;5075241;27;45602;-60
2023/04/14 01:27:36;;;;;;;;;3.67;3.67;;;;;;;;5073898;27;45618;-61
2023/04/14 01:30:07;;;;;;;;;3.00;2.00;;;;;;;;5073693;27;45476;-60
2023/04/14 01:32:35;;;;;;;;;4.00;4.00;;;;;;;;5074225;27;45422;-61
2023/04/14 01:35:07;;;;;;;;;4.00;4.00;;;;;;;;5073343;27;45469;-60
2023/04/14 01:37:34;;;;;;;;;5.33;5.33;;;;;;;;5075123;28;45453;-62
2023/04/14 01:40:06;;;;;;;;;3.67;3.67;;;;;;;;5074580;27;46246;-60
2023/04/14 01:42:34;;;;;;;;;4.33;4.33;;;;;;;;5074043;27;45691;-62
2023/04/14 01:45:02;;;;;;;;;5.67;5.67;;;;;;;;5060696;28;45498;-59
2023/04/14 01:47:28;;;;;;;;;6.00;6.00;;;;;;;;5074882;27;45757;-59
2023/04/14 01:49:54;;;;;;;;;8.00;6.67;;;;;;;;5074793;27;45499;-62
2023/04/14 01:52:20;;;;;;;;;6.33;6.33;;;;;;;;5073562;27;45454;-61
2023/04/14 01:54:47;;;;;;;;;5.67;5.67;;;;;;;;5073821;27;45515;-60
2023/04/14 01:57:14;;;;;;;;;8.00;6.00;;;;;;;;5071964;27;45426;-61
2023/04/14 01:59:40;;;;;;;;;4.33;4.33;;;;;;;;5074330;27;46168;-61
2023/04/14 02:02:06;;;;;;;;;4.00;4.00;;;;;;;;5072880;27;45556;-60
2023/04/14 02:04:34;;;;;;;;;5.33;5.33;;;;;;;;5074689;27;45522;-62
2023/04/14 02:07:01;;;;;;;;;3.00;3.00;;;;;;;;5071482;27;45656;-60
2023/04/14 02:09:27;;;;;;;;;6.33;5.00;;;;;;;;5051684;28;45613;-59
2023/04/14 02:11:53;;;;;;;;;5.00;5.00;;;;;;;;5065541;27;45564;-61
2023/04/14 02:14:20;;;;;;;;;5.00;5.00;;;;;;;;5074305;27;45542;-63
2023/04/14 02:16:47;;;;;;;;;8.67;6.33;;;;;;;;5072600;27;45573;-61
2023/04/14 02:19:12;;;;;;;;;6.33;6.33;;;;;;;;5073419;27;46358;-60
2023/04/14 02:21:39;;;;;;;;;6.00;6.00;;;;;;;;5074122;27;45486;-63
2023/04/14 02:24:04;;;;;;;;;7.67;6.67;;;;;;;;5074331;27;45626;-58
2023/04/14 02:26:31;;;;;;;;;4.67;4.00;;;;;;;;5073444;27;45511;-63
2023/04/14 02:29:00;;;;;;;;;7.00;7.00;;;;;;;;5073520;27;45597;-59
2023/04/14 02:31:26;;;;;;;;;6.67;5.33;;;;;;;;5073497;27;45678;-60
2023/04/14 02:33:52;;;;;;;;;8.33;6.67;;;;;;;;5074014;27;45459;-62
2023/04/14 02:36:28;;;;;;;;;5.67;5.67;;;;;;;;5073384;28;45561;-61
2023/04/14 02:39:00;;;;;;;;;4.33;4.33;;;;;;;;5072814;28;46406;-60
2023/04/14 02:41:27;;;;;;;;;5.00;5.00;;;;;;;;5073941;27;45504;-61
2023/04/14 02:43:54;;;;;;;;;5.00;5.00;;;;;;;;5074046;27;45554;-61
2023/04/14 02:46:20;;;;;;;;;4.67;4.67;;;;;;;;5072611;27;45643;-61
2023/04/14 02:48:46;;;;;;;;;6.00;5.67;;;;;;;;5072716;27;45537;-61
2023/04/14 02:51:13;;;;;;;;;5.00;4.33;;;;;;;;5074086;27;46078;-61
2023/04/14 02:53:39;;;;;;;;;4.00;4.00;;;;;;;;5074041;28;45393;-62
2023/04/14 02:56:05;;;;;;;;;5.00;5.00;;;;;;;;5073775;27;45434;-60
2023/04/14 02:58:31;;;;;;;;;5.00;4.33;;;;;;;;5073054;27;46682;-59
2023/04/14 03:00:56;;;;;;;;;5.00;4.00;;;;;;;;5073659;27;45469;-61
2023/04/14 03:03:22;;;;;;;;;2.00;2.00;;;;;;;;5073922;27;45532;-60
2023/04/14 03:05:47;;;;;;;;;4.67;3.33;;;;;;;;5073965;27;45469;-61
2023/04/14 03:08:13;;;;;;;;;3.00;3.00;;;;;;;;5063212;27;45607;-62
2023/04/14 03:10:40;;;;;;;;;4.67;3.00;;;;;;;;5072849;27;45523;-61
2023/04/14 03:13:06;;;;;;;;;3.00;3.00;;;;;;;;5073606;27;45500;-59
2023/04/14 03:15:32;;;;;;;;;3.00;3.00;;;;;;;;5073568;27;45479;-62
2023/04/14 03:17:59;;;;;;;;;3.67;3.67;;;;;;;;5072140;27;46539;-60
2023/04/14 03:20:24;;;;;;;;;5.00;5.00;;;;;;;;5073118;27;45696;-62
2023/04/14 03:22:56;;;;;;;;;4.00;4.00;;;;;;;;5073699;27;45567;-62
2023/04/14 03:25:24;;;;;;;;;3.67;3.67;;;;;;;;5073456;28;46084;-60
2023/04/14 03:27:51;;;;;;;;;4.00;4.00;;;;;;;;5072164;27;46137;-59
2023/04/14 03:30:16;;;;;;;;;7.00;5.00;;;;;;;;5073272;27;45490;-62
2023/04/14 03:32:42;;;;;;;;;4.00;4.00;;;;;;;;5071455;27;45441;-61
2023/04/14 03:35:08;;;;;;;;;6.00;6.00;;;;;;;;5072574;28;45437;-62
2023/04/14 03:37:35;;;;;;;;;4.67;4.67;;;;;;;;5073816;27;47033;-60
2023/04/14 03:40:03;;;;;;;;;4.33;4.33;;;;;;;;5076413;27;45526;-60
2023/04/14 03:42:28;;;;;;;;;4.00;4.00;;;;;;;;5076449;27;45568;-61
2023/04/14 03:44:55;;;;;;;;;3.00;3.00;;;;;;;;5074806;27;45546;-62
2023/04/14 03:47:22;;;;;;;;;3.00;3.00;;;;;;;;5076794;27;45506;-62
2023/04/14 03:49:48;;;;;;;;;4.00;4.00;;;;;;;;5076434;27;45541;-60
2023/04/14 03:52:14;;;;;;;;;4.67;4.67;;;;;;;;5074907;27;45507;-59
2023/04/14 03:54:41;;;;;;;;;5.00;5.00;;;;;;;;5076002;27;45565;-60
2023/04/14 03:57:08;;;;;;;;;4.25;4.00;;;;;;;;5074958;28;47037;-60
2023/04/14 03:59:34;;;;;;;;;6.50;4.75;;;;;;;;5076468;27;45539;-60
2023/04/14 04:02:01;;;;;;;;;0.00;0.00;;;;;;;;5076746;27;45398;-62
2023/04/14 04:04:27;;;;;;;;;3.67;3.67;;;;;;;;5075772;27;45463;-61
2023/04/14 04:06:53;;;;;;;;;3.33;3.33;;;;;;;;5076439;27;45551;-60
2023/04/14 04:09:19;;;;;;;;;3.75;3.75;;;;;;;;5076490;27;45841;-59
2023/04/14 04:11:45;;;;;;;;;4.00;4.00;;;;;;;;5074856;27;45622;-61
2023/04/14 04:14:12;;;;;;;;;3.33;3.33;;;;;;;;5075431;27;45569;-59
2023/04/14 04:16:39;;;;;;;;;4.25;4.25;;;;;;;;5076227;27;46984;-62
2023/04/14 04:19:05;;;;;;;;;5.00;5.00;;;;;;;;5075304;27;45571;-61
2023/04/14 04:21:31;;;;;;;;;5.00;3.50;;;;;;;;5076424;27;45414;-61
2023/04/14 04:23:59;;;;;;;;;5.50;4.75;;;;;;;;5075407;27;45494;-62
2023/04/14 04:26:24;;;;;;;;;6.25;6.25;;;;;;;;5075920;27;45593;-59
2023/04/14 04:28:50;;;;;;;;;4.50;4.50;;;;;;;;5076212;27;45501;-59
2023/04/14 04:31:15;;;;;;;;;4.00;4.00;;;;;;;;5076053;27;45477;-59
2023/04/14 04:33:41;;;;;;;;;5.00;5.00;;;;;;;;5075579;27;45580;-59
2023/04/14 04:36:06;;;;;;;;;5.50;4.50;;;;;;;;5072639;27;45576;-61
2023/04/14 04:38:31;;;;;;;;;5.25;5.25;;;;;;;;5075837;27;45491;-59
2023/04/14 04:40:56;;;;;;;;;6.50;5.00;;;;;;;;5075890;27;45550;-60
2023/04/14 04:43:22;;;;;;;;;5.00;4.75;;;;;;;;5074902;27;45636;-61
2023/04/14 04:46:06;;;;;;;;;4.75;4.50;;;;;;;;5071987;28;45473;-60
2023/04/14 04:48:31;;;;;;;;;7.00;7.00;;;;;;;;5074771;27;45536;-60
2023/04/14 04:50:56;;;;;;;;;5.25;4.50;;;;;;;;5075710;27;45782;-61
2023/04/14 04:53:21;;;;;;;;;6.00;6.00;;;;;;;;5074765;28;45442;-61
2023/04/14 04:55:46;;;;;;;;;5.25;5.25;;;;;;;;5075656;27;45459;-59
2023/04/14 04:58:12;;;;;;;;;4.75;4.75;;;;;;;;5075636;27;45443;-63
2023/04/14 05:00:37;;;;;;;;;4.00;4.00;;;;;;;;5075639;27;45404;-59
2023/04/14 05:03:02;;;;;;;;;6.00;6.00;;;;;;;;5074821;27;45485;-60
2023/04/14 05:05:27;;;;;;;;;6.00;6.00;;;;;;;;5075302;27;45479;-61
2023/04/14 05:07:53;;;;;;;;;5.00;5.00;;;;;;;;5074441;27;45600;-61
2023/04/14 05:10:18;;;;;;;;;5.67;5.67;;;;;;;;5062992;27;45483;-60
2023/04/14 05:12:43;;;;;;;;;4.00;4.00;;;;;;;;5068345;27;45514;-59
2023/04/14 05:15:08;;;;;;;;;5.50;5.50;;;;;;;;5075109;27;45452;-60
2023/04/14 05:17:34;;;;;;;;;4.00;4.00;;;;;;;;5074978;27;45541;-60
2023/04/14 05:20:00;;;;;;;;;5.25;5.25;;;;;;;;5075300;27;45528;-60
2023/04/14 05:22:26;;;;;;;;;8.25;6.75;;;;;;;;5074998;27;45583;-60
2023/04/14 05:24:51;;;;;;;;;5.00;5.00;;;;;;;;5075141;27;46067;-60
2023/04/14 05:27:16;;;;;;;;;3.25;3.25;;;;;;;;5075201;27;45643;-60
2023/04/14 05:29:42;;;;;;;;;7.00;7.00;;;;;;;;5071132;28;45505;-60
2023/04/14 05:32:07;;;;;;;;;6.50;6.50;;;;;;;;5066931;27;45483;-59
2023/04/14 05:34:32;;;;;;;;;7.25;6.25;;;;;;;;5070770;27;46152;-60
2023/04/14 05:36:57;;;;;;;;;13.00;8.00;;;;;;;;5071479;27;45694;-60
2023/04/14 05:39:22;;;;;;;;;6.50;5.75;;;;;;;;5075091;27;45656;-60
2023/04/14 05:41:48;;;;;;;;;5.50;5.50;;;;;;;;5074831;27;45649;-61
2023/04/14 05:44:13;;;;;;;;;7.50;6.00;;;;;;;;5074471;27;45495;-60
2023/04/14 05:46:38;;;;;;;;;5.00;5.00;;;;;;;;5074607;27;45458;-61
2023/04/14 05:49:03;;;;;;;;;6.50;6.25;;;;;;;;5073001;27;45509;-61
2023/04/14 05:51:29;;;;;;;;;4.75;3.50;;;;;;;;5066936;27;45587;-61
2023/04/14 05:53:54;;;;;;;;;7.50;7.50;;;;;;;;5074250;27;45678;-61
2023/04/14 05:56:19;;;;;;;;;7.50;7.50;;;;;;;;5069065;27;45520;-54
2023/04/14 05:58:44;;;;;;;;;6.00;6.00;;;;;;;;5062085;27;45492;-55
2023/04/14 06:01:10;;;;;;;;;6.75;6.75;;;;;;;;5064659;27;45484;-55
2023/04/14 06:03:36;;;;;;;;;7.25;7.00;;;;;;;;5073418;27;46101;-51
2023/04/14 06:06:01;;;;;;;;;11.75;11.75;;;;;;;;5069198;28;45620;-51
2023/04/14 06:08:26;;;;;;;;;7.00;6.75;;;;;;;;5069553;27;45627;-52
2023/04/14 06:10:52;;;;;;;;;9.50;9.50;;;;;;;;5074633;28;45564;-54
2023/04/14 06:13:21;;;;;;;;;9.75;8.25;;;;;;;;5072996;28;46419;-55
2023/04/14 06:15:47;;;;;;;;;9.75;9.00;;;;;;;;5073821;27;45537;-54
2023/04/14 06:18:13;;;;;;;;;13.50;10.25;;;;;;;;5074272;27;45538;-54
2023/04/14 06:20:38;;;;;;;;;8.75;8.50;;;;;;;;5074638;27;45579;-53
2023/04/14 06:23:04;;;;;;;;;10.25;10.25;;;;;;;;5060894;28;46233;-55
2023/04/14 06:25:29;;;;;;;;;10.75;10.75;;;;;;;;5071484;27;45398;-57
2023/04/14 06:27:55;;;;;;;;;14.25;9.25;;;;;;;;5074262;28;45458;-56
2023/04/14 06:30:21;;;;;;;;;7.00;7.00;;;;;;;;5073932;27;45493;-55
2023/04/14 06:32:47;;;;;;;;;12.75;9.00;;;;;;;;5073844;27;46071;-57
2023/04/14 06:35:12;;;;;;;;;12.50;10.00;;;;;;;;5073703;27;45533;-54
2023/04/14 06:37:38;;;;;;;;;13.25;11.50;;;;;;;;5062127;28;45485;-55
2023/04/14 06:40:03;;;;;;;;;10.75;10.75;;;;;;;;5072173;27;45548;-55
2023/04/14 06:42:28;;;;;;;;;12.75;12.50;;;;;;;;5073757;27;46216;-56
2023/04/14 06:44:53;;;;;;;;;11.50;11.50;;;;;;;;5073409;27;45626;-54
2023/04/14 06:47:19;;;;;;;;;16.75;15.50;;;;;;;;5066253;27;45506;-57
2023/04/14 06:49:45;;;;;;;;;14.50;13.25;;;;;;;;5072121;27;45609;-58
2023/04/14 06:52:10;;;;;;;;;18.50;14.50;;;;;;;;5067071;27;46008;-57
2023/04/14 06:54:35;;;;;;;;;17.75;17.50;;;;;;;;5072241;27;45534;-56
2023/04/14 06:57:00;;;;;;;;;17.75;17.75;;;;;;;;5067867;27;45726;-57
2023/04/14 06:59:28;;;;;;;;;14.25;14.25;;;;;;;;5073448;27;45531;-62
2023/04/14 07:01:53;;;;;;;;;13.00;11.00;;;;;;;;5072580;27;45521;-64
2023/04/14 07:04:18;;;;;;;;;14.75;12.75;;;;;;;;5073609;27;45477;-64
2023/04/14 07:06:43;;;;;;;;;15.00;12.25;;;;;;;;5071231;28;45425;-62
2023/04/14 07:09:08;;;;;;;;;17.00;16.00;;;;;;;;5069735;27;45554;-61
2023/04/14 07:11:34;;;;;;;;;13.25;13.25;;;;;;;;5075131;27;46181;-67
2023/04/14 07:13:59;;;;;;;;;11.75;11.75;;;;;;;;5075287;27;45584;-62
2023/04/14 07:16:24;;;;;;;;;15.50;13.00;;;;;;;;5076798;27;45515;-63
2023/04/14 07:18:49;;;;;;;;;18.00;17.00;;;;;;;;5074561;27;45622;-65
2023/04/14 07:21:15;;;;;;;;;15.50;15.50;;;;;;;;5075940;27;46209;-61
2023/04/14 07:23:40;;;;;;;;;30.00;23.50;;;;;;;;5076414;27;45516;-66
2023/04/14 07:26:06;;;;;;;;;16.50;13.50;;;;;;;;5076283;27;46575;-65
2023/04/14 07:28:31;;;;;;;;;14.00;14.00;;;;;;;;5076590;27;45475;-66
2023/04/14 07:30:56;;;;;;;;;14.00;13.00;;;;;;;;5075539;27;45966;-65
2023/04/14 07:33:23;;;;;;;;;13.25;13.25;;;;;;;;5075839;27;45603;-64
2023/04/14 07:35:48;;;;;;;;;13.25;13.25;;;;;;;;5075527;27;45474;-62
2023/04/14 07:38:14;;;;;;;;;13.00;13.00;;;;;;;;5069414;27;45557;-59
2023/04/14 07:40:39;;;;;;;;;17.75;16.25;;;;;;;;5074240;27;46429;-61
2023/04/14 07:43:04;;;;;;;;;14.75;13.75;;;;;;;;5071335;27;45628;-61
2023/04/14 07:45:30;;;;;;;;;13.50;12.00;;;;;;;;5076956;27;45561;-68
2023/04/14 07:47:55;;;;;;;;;11.50;10.00;;;;;;;;5071211;28;45678;-60
2023/04/14 07:50:21;;;;;;;;;13.50;12.50;;;;;;;;5061445;28;46270;-59
2023/04/14 07:52:46;;;;;;;;;8.00;8.00;;;;;;;;5074796;27;45523;-60
2023/04/14 07:55:11;;;;;;;;;10.00;10.00;;;;;;;;5068680;28;45564;-64
2023/04/14 07:57:36;;;;;;;;;12.75;11.75;;;;;;;;5075831;27;45561;-66
2023/04/14 08:00:02;;;;;;;;;10.00;9.25;;;;;;;;5075426;27;45961;-67
2023/04/14 08:02:28;;;;;;;;;10.25;10.25;;;;;;;;5074541;27;45603;-69
2023/04/14 08:04:53;;;;;;;;;14.75;11.75;;;;;;;;5076567;27;45465;-66
2023/04/14 08:07:18;;;;;;;;;12.75;10.75;;;;;;;;5074880;27;45457;-70
2023/04/14 08:09:43;;;;;;;;;9.25;9.25;;;;;;;;5075002;28;45655;-64
2023/04/14 08:12:09;;;;;;;;;10.50;9.00;;;;;;;;5072206;27;45483;-66
2023/04/14 08:14:34;;;;;;;;;7.75;7.50;;;;;;;;5074519;27;45612;-65
2023/04/14 08:16:59;;;;;;;;;9.25;8.50;;;;;;;;5073583;27;45667;-66
2023/04/14 08:19:24;;;;;;;;;10.00;10.00;;;;;;;;5069674;27;45574;-67
2023/04/14 08:21:50;;;;;;;;;4.75;4.75;;;;;;;;5075513;27;45495;-65
2023/04/14 08:24:16;;;;;;;;;7.75;7.75;;;;;;;;5073528;28;45499;-60
2023/04/14 08:26:41;;;;;;;;;5.75;5.75;;;;;;;;5074351;27;45598;-59
2023/04/14 08:29:06;;;;;;;;;6.00;6.00;;;;;;;;5073004;27;47175;-62
2023/04/14 08:31:32;;;;;;;;;9.00;9.00;;;;;;;;5073233;27;45391;-62
2023/04/14 08:33:57;;;;;;;;;6.75;6.75;;;;;;;;5076026;27;45440;-64
2023/04/14 08:36:22;;;;;;;;;5.00;5.00;;;;;;;;5065788;27;45684;-64
2023/04/14 08:38:47;;;;;;;;;5.25;5.25;;;;;;;;5072820;27;45565;-63
2023/04/14 08:41:15;;;;;;;;;8.00;6.75;;;;;;;;5075084;27;45649;-64
2023/04/14 08:43:41;;;;;;;;;6.67;5.00;;;;;;;;5074342;28;45735;-62
2023/04/14 08:46:08;;;;;;;;;7.00;7.00;;;;;;;;5063486;28;45460;-63
2023/04/14 08:48:34;;;;;;;;;6.50;5.50;;;;;;;;5072865;27;45573;-58
2023/04/14 08:51:09;;;;;;;;;6.00;5.67;;;;;;;;5068729;27;45583;-63
2023/04/14 08:53:41;;;;;;;;;6.50;6.50;;;;;;;;5074396;27;45515;-61
2023/04/14 08:56:08;;;;;;;;;8.00;8.00;;;;;;;;5073630;27;45559;-64
2023/04/14 08:58:33;;;;;;;;;6.00;6.00;;;;;;;;5070712;27;46010;-66
2023/04/14 09:00:59;;;;;;;;;6.25;6.25;;;;;;;;5072922;27;45503;-65
2023/04/14 09:03:24;;;;;;;;;4.33;4.33;;;;;;;;5064593;28;45430;-66
2023/04/14 09:05:50;;;;;;;;;8.00;8.00;;;;;;;;5070277;28;45677;-63
2023/04/14 09:08:15;;;;;;;;;6.33;6.33;;;;;;;;5073922;27;45723;-64
2023/04/14 09:10:41;;;;;;;;;5.67;5.67;;;;;;;;5074513;27;45464;-59
2023/04/14 09:13:07;;;;;;;;;6.00;6.00;;;;;;;;5074000;27;45599;-59
2023/04/14 09:15:33;;;;;;;;;6.00;6.00;;;;;;;;5074392;27;45472;-65
2023/04/14 09:17:58;;;;;;;;;5.00;3.67;;;;;;;;5074510;27;45529;-65
2023/04/14 09:20:24;;;;;;;;;6.33;6.33;;;;;;;;5071485;27;45535;-64
2023/04/14 09:22:49;;;;;;;;;7.25;7.25;;;;;;;;5074472;27;45461;-66
2023/04/14 09:25:15;;;;;;;;;6.67;6.33;;;;;;;;5071363;27;45616;-65
2023/04/14 09:27:40;;;;;;;;;5.50;5.00;;;;;;;;5074546;27;45645;-61
2023/04/14 09:30:06;;;;;;;;;5.75;5.75;;;;;;;;5062977;28;45575;-62
2023/04/14 09:32:31;;;;;;;;;4.75;4.75;;;;;;;;5074572;27;45400;-61
2023/04/14 09:34:57;;;;;;;;;6.00;6.00;;;;;;;;5068572;28;45517;-57
2023/04/14 09:37:22;;;;;;;;;7.67;6.67;;;;;;;;5072784;27;45610;-59
2023/04/14 09:39:49;;;;;;;;;5.33;5.33;;;;;;;;5072350;27;45488;-59
2023/04/14 09:42:16;;;;;;;;;6.33;4.33;;;;;;;;5075176;27;45492;-56
2023/04/14 09:44:57;;;;;;;;;3.33;3.33;;;;;;;;5068613;27;45485;-62
2023/04/14 09:47:23;;;;;;;;;5.00;4.00;;;;;;;;5068039;27;45582;-62
2023/04/14 09:49:59;;;;;;;;;7.00;4.00;;;;;;;;5073374;27;45658;-65
2023/04/14 09:52:35;;;;;;;;;3.00;3.00;;;;;;;;5074872;28;45519;-63
2023/04/14 09:55:00;;;;;;;;;3.00;3.00;;;;;;;;5073888;27;45544;-59
2023/04/14 09:57:27;;;;;;;;;3.67;3.67;;;;;;;;5071350;28;45731;-62
2023/04/14 09:59:52;;;;;;;;;2.67;2.67;;;;;;;;5074047;27;45581;-65
2023/04/14 10:02:17;;;;;;;;;5.00;4.00;;;;;;;;5063983;27;45396;-60
2023/04/14 10:04:42;;;;;;;;;4.00;3.00;;;;;;;;5074451;27;45434;-60
2023/04/14 10:07:07;;;;;;;;;4.00;4.00;;;;;;;;5072553;27;45696;-61
2023/04/14 10:09:34;;;;;;;;;3.00;3.00;;;;;;;;5071374;27;45525;-60
2023/04/14 10:12:08;;;;;;;;;4.00;3.00;;;;;;;;5071127;27;45527;-60
2023/04/14 10:14:35;;;;;;;;;2.33;2.33;;;;;;;;5073669;27;45522;-61
2023/04/14 10:17:01;;;;;;;;;3.33;2.67;;;;;;;;5074404;27;45530;-65
2023/04/14 10:19:26;;;;;;;;;3.00;3.00;;;;;;;;5070022;28;45554;-66
2023/04/14 10:21:52;;;;;;;;;3.33;2.00;;;;;;;;5073113;27;45767;-62
2023/04/14 10:24:18;;;;;;;;;2.00;2.00;;;;;;;;5073167;27;45508;-65
2023/04/14 10:26:46;;;;;;;;;3.33;3.00;;;;;;;;5072433;27;46998;-67
2023/04/14 10:29:11;;;;;;;;;7.00;6.00;;;;;;;;5075855;27;45521;-57
2023/04/14 10:31:37;;;;;;;;;4.00;2.00;;;;;;;;5065118;28;45572;-60
2023/04/14 10:34:07;;;;;;;;;2.00;2.00;;;;;;;;5072368;27;45484;-63
2023/04/14 10:36:35;;;;;;;;;3.00;3.00;;;;;;;;5072288;27;46158;-62
2023/04/14 10:39:01;;;;;;;;;2.00;2.00;;;;;;;;5069946;27;45559;-57
2023/04/14 10:41:35;;;;;;;;;4.33;3.33;;;;;;;;5067806;27;45502;-58
2023/04/14 10:44:01;;;;;;;;;3.00;3.00;;;;;;;;5072589;27;45631;-59
2023/04/14 10:46:40;;;;;;;;;7.00;4.67;;;;;;;;5064972;27;46052;-56
2023/04/14 10:49:07;;;;;;;;;5.00;4.00;;;;;;;;5070546;28;45604;-57
2023/04/14 10:51:35;;;;;;;;;2.67;2.67;;;;;;;;5072299;27;45526;-59
2023/04/14 10:54:01;;;;;;;;;3.33;3.33;;;;;;;;5072258;27;45490;-58
2023/04/14 10:56:28;;;;;;;;;3.00;3.00;;;;;;;;5073428;28;45476;-58
2023/04/14 10:58:54;;;;;;;;;22.25;20.25;;;;;;;;5071355;27;45531;-52
2023/04/14 11:01:20;;;;;;;;;3.00;2.00;;;;;;;;5070821;28;45430;-59
2023/04/14 11:03:46;;;;;;;;;3.33;3.33;;;;;;;;5069652;27;45608;-63
2023/04/14 11:06:11;;;;;;;;;4.00;3.00;;;;;;;;5067523;27;46183;-64
2023/04/14 11:08:36;;;;;;;;;1.33;1.33;;;;;;;;5065781;27;45530;-61
2023/04/14 11:11:03;;;;;;;;;4.00;4.00;;;;;;;;5071054;27;45449;-62
2023/04/14 11:13:29;;;;;;;;;4.33;2.00;;;;;;;;5070724;27;45893;-63
2023/04/14 11:16:05;;;;;;;;;2.33;2.00;;;;;;;;5061348;27;45643;-63
2023/04/14 11:18:31;;;;;;;;;3.00;3.00;;;;;;;;5077937;27;45559;-63
2023/04/14 11:21:08;;;;;;;;;5.33;3.67;;;;;;;;5061322;28;45576;-61
2023/04/14 11:23:34;;;;;;;;;3.00;3.00;;;;;;;;5071565;27;45630;-60
2023/04/14 11:25:59;;;;;;;;;2.67;2.67;;;;;;;;5074019;28;46243;-61
2023/04/14 11:28:29;;;;;;;;;3.00;3.00;;;;;;;;5071982;27;45560;-64
2023/04/14 11:30:58;;;;;;;;;4.00;4.00;;;;;;;;5073036;27;45524;-60
2023/04/14 11:33:25;;;;;;;;;6.67;4.33;;;;;;;;5062267;27;45937;-61
2023/04/14 11:35:51;;;;;;;;;2.33;2.33;;;;;;;;5069925;28;46157;-62
2023/04/14 11:38:16;;;;;;;;;7.00;5.00;;;;;;;;5058464;27;46052;-61
2023/04/14 11:40:47;;;;;;;;;5.33;5.33;;;;;;;;5062665;27;45571;-61
2023/04/14 11:43:13;;;;;;;;;6.33;4.00;;;;;;;;5065499;28;45450;-60
2023/04/14 11:45:41;;;;;;;;;3.00;3.00;;;;;;;;5072994;27;46281;-61
2023/04/14 11:48:08;;;;;;;;;7.00;7.00;;;;;;;;5074322;27;45519;-60
2023/04/14 11:50:37;;;;;;;;;3.33;2.33;;;;;;;;5062209;28;45537;-59
2023/04/14 11:53:10;;;;;;;;;4.00;3.00;;;;;;;;5069725;28;45517;-61
2023/04/14 11:55:35;;;;;;;;;3.00;2.00;;;;;;;;5056112;28;46056;-62
2023/04/14 11:58:02;;;;;;;;;4.33;3.33;;;;;;;;5057999;27;45494;-60
2023/04/14 12:00:27;;;;;;;;;6.00;4.33;;;;;;;;5075320;27;45504;-60
2023/04/14 12:02:53;;;;;;;;;5.00;3.00;;;;;;;;5072111;27;45643;-63
2023/04/14 12:05:20;;;;;;;;;2.00;2.00;;;;;;;;5065304;27;47250;-60
2023/04/14 12:07:46;;;;;;;;;2.00;2.00;;;;;;;;5073242;27;45480;-62
2023/04/14 12:10:12;;;;;;;;;2.33;2.33;;;;;;;;5068402;28;45649;-62
2023/04/14 12:12:37;;;;;;;;;2.00;1.33;;;;;;;;5070444;27;45517;-64
2023/04/14 12:15:04;;;;;;;;;3.00;1.67;;;;;;;;5072603;27;46133;-65
2023/04/14 12:17:30;;;;;;;;;1.00;1.00;;;;;;;;5075656;27;45577;-60
2023/04/14 12:19:59;;;;;;;;;1.00;1.00;;;;;;;;5073464;27;46068;-59
2023/04/14 12:22:28;;;;;;;;;3.33;1.67;;;;;;;;5071282;27;45455;-61
2023/04/14 12:24:56;;;;;;;;;3.67;2.00;;;;;;;;5077586;27;45593;-56
2023/04/14 12:27:22;;;;;;;;;0.67;0.67;;;;;;;;5070894;28;45487;-55
2023/04/14 12:29:49;;;;;;;;;4.00;2.00;;;;;;;;5066531;27;45614;-59
2023/04/14 12:32:14;;;;;;;;;3.33;3.33;;;;;;;;5059813;27;45535;-56
2023/04/14 12:34:40;;;;;;;;;1.33;1.33;;;;;;;;5064441;27;46343;-61
2023/04/14 12:37:07;;;;;;;;;5.67;2.00;;;;;;;;5071585;27;45617;-58
2023/04/14 12:39:46;;;;;;;;;2.67;2.00;;;;;;;;5075435;27;45560;-58
2023/04/14 12:42:12;;;;;;;;;1.00;1.00;;;;;;;;5070733;27;45483;-58
2023/04/14 12:44:39;;;;;;;;;2.67;2.33;;;;;;;;5069955;27;46882;-60
2023/04/14 12:47:06;;;;;;;;;1.00;1.00;;;;;;;;5070143;28;45525;-60
2023/04/14 12:49:32;;;;;;;;;1.67;1.67;;;;;;;;5069915;27;45651;-61
2023/04/14 12:51:58;;;;;;;;;2.33;1.00;;;;;;;;5060350;27;45681;-59
2023/04/14 12:54:24;;;;;;;;;2.00;2.00;;;;;;;;5070044;28;45671;-61
2023/04/14 12:56:50;;;;;;;;;1.00;1.00;;;;;;;;5073580;27;45462;-61
2023/04/14 12:59:15;;;;;;;;;2.67;2.33;;;;;;;;5066489;27;45621;-62
2023/04/14 13:01:40;;;;;;;;;3.00;1.33;;;;;;;;5069908;27;45466;-61
2023/04/14 13:04:06;;;;;;;;;1.00;1.00;;;;;;;;5073398;27;46120;-61
2023/04/14 13:06:31;;;;;;;;;1.00;1.00;;;;;;;;5072055;27;45511;-61
2023/04/14 13:08:57;;;;;;;;;2.00;1.00;;;;;;;;5071257;27;45434;-63
2023/04/14 13:11:23;;;;;;;;;1.67;1.67;;;;;;;;5067788;28;45429;-62
2023/04/14 13:13:48;;;;;;;;;3.00;1.67;;;;;;;;5067195;28;45616;-59
2023/04/14 13:16:14;;;;;;;;;1.00;1.00;;;;;;;;5073946;27;45527;-62
2023/04/14 13:18:40;;;;;;;;;1.67;1.67;;;;;;;;5073052;27;45577;-63
2023/04/14 13:21:05;;;;;;;;;2.00;2.00;;;;;;;;5074981;28;45598;-59
2023/04/14 13:23:31;;;;;;;;;3.00;2.00;;;;;;;;5071611;28;46092;-63
2023/04/14 13:25:57;;;;;;;;;1.67;1.67;;;;;;;;5073371;27;45529;-62
2023/04/14 13:28:22;;;;;;;;;2.00;2.00;;;;;;;;5073641;27;45806;-63
2023/04/14 13:30:50;;;;;;;;;2.67;2.00;;;;;;;;5074988;27;45541;-59
2023/04/14 13:33:16;;;;;;;;;2.67;2.67;;;;;;;;5070534;27;46211;-59
2023/04/14 13:35:42;;;;;;;;;3.00;3.00;;;;;;;;5070231;28;45389;-58
2023/04/14 13:38:07;;;;;;;;;2.33;2.00;;;;;;;;5067519;27;45501;-66
2023/04/14 13:40:35;;;;;;;;;3.00;2.33;;;;;;;;5067029;27;45510;-61
2023/04/14 13:43:00;;;;;;;;;1.00;1.00;;;;;;;;5066244;27;45732;-65
2023/04/14 13:45:27;;;;;;;;;1.00;1.00;;;;;;;;5063431;28;45479;-65
2023/04/14 13:47:52;;;;;;;;;1.00;1.00;;;;;;;;5063667;27;45544;-64
2023/04/14 13:50:18;;;;;;;;;3.00;2.00;;;;;;;;5063138;27;45457;-62
2023/04/14 13:52:43;;;;;;;;;1.67;1.67;;;;;;;;5066372;27;47342;-63
2023/04/14 13:55:11;;;;;;;;;2.00;2.00;;;;;;;;5071953;27;45470;-68
2023/04/14 13:57:37;;;;;;;;;3.00;1.33;;;;;;;;5070657;27;45403;-60
2023/04/14 14:00:06;;;;;;;;;1.00;1.00;;;;;;;;5061588;27;45523;-60
2023/04/14 14:02:32;;;;;;;;;2.00;2.00;;;;;;;;5074042;27;46345;-57
2023/04/14 14:04:58;;;;;;;;;3.00;2.33;;;;;;;;5073748;27;45514;-57
2023/04/14 14:07:24;;;;;;;;;0.00;0.00;;;;;;;;5075850;27;45542;-56
2023/04/14 14:09:50;;;;;;;;;2.00;0.67;;;;;;;;5077189;27;45587;-59
2023/04/14 14:12:18;;;;;;;;;1.00;1.00;;;;;;;;5072627;28;46141;-60
2023/04/14 14:14:44;;;;;;;;;1.00;1.00;;;;;;;;5063092;27;45406;-60
2023/04/14 14:17:11;;;;;;;;;2.67;2.67;;;;;;;;5080510;27;45592;-61
2023/04/14 14:19:36;;;;;;;;;1.67;1.67;;;;;;;;5071859;27;45547;-62
2023/04/14 14:22:06;;;;;;;;;3.00;1.00;;;;;;;;5063488;28;45571;-62
2023/04/14 14:24:31;;;;;;;;;1.00;1.00;;;;;;;;5068233;27;45549;-62
2023/04/14 14:26:57;;;;;;;;;1.00;1.00;;;;;;;;5073862;27;45405;-64
2023/04/14 14:29:22;;;;;;;;;1.00;1.00;;;;;;;;5074017;27;45432;-62
2023/04/14 14:31:47;;;;;;;;;1.00;1.00;;;;;;;;5071957;27;45469;-64
2023/04/14 14:34:16;;;;;;;;;2.00;0.00;;;;;;;;5072794;27;45588;-63
2023/04/14 14:36:42;;;;;;;;;1.00;1.00;;;;;;;;5071999;27;45466;-60